Austwell, Texas
Current Conditions -  °F | °C
As of 10:15 PM on Saturday 25 Oct 2014 (Local Time) from KPKV Reporting Station
Clear Clear  
Wind Chill: 19°   Ceiling: Unl
Heat Index: 19°   Visibility: 10mi
Dew Point: 17°   Wind: 3mph
Humidity: 85%   Direction: 180°S
Pressure: 30.11"   Gusts: NA
Location:  28.39°N, 96.84°W
Report Text: KPKV 260315Z AUTO 18003KT 10SM CLR 19/17 A3011 RMK AO2 T01900165
Loading
Personal Weather Stations






























Interactive Weather Map
Tropical Storm Tracking
New forecast layout! Learn more

10-Day Weather Forecast

Advertisements
Track Severe Weather on mobile